createdAt,value
2019-01-14T00:00:14.659Z,3.77
2019-01-14T00:02:43.124Z,3.80
2019-01-14T00:05:11.972Z,3.90
2019-01-14T00:07:40.422Z,3.27
2019-01-14T00:10:09.114Z,3.83
2019-01-14T00:12:37.547Z,3.23
2019-01-14T00:15:08.403Z,3.90
2019-01-14T00:17:37.676Z,3.47
2019-01-14T00:20:09.284Z,2.80
2019-01-14T00:22:37.721Z,3.00
2019-01-14T00:25:06.520Z,3.67
2019-01-14T00:27:34.958Z,3.53
2019-01-14T00:30:05.613Z,3.40
2019-01-14T00:32:34.025Z,3.97
2019-01-14T00:35:02.480Z,4.10
2019-01-14T00:37:30.922Z,3.97
2019-01-14T00:39:59.376Z,3.37
2019-01-14T00:42:28.057Z,3.97
2019-01-14T00:44:56.511Z,4.23
2019-01-14T00:47:25.025Z,3.63
2019-01-14T00:49:53.568Z,4.37
2019-01-14T00:52:22.102Z,4.50
2019-01-14T00:54:50.532Z,3.17
2019-01-14T00:57:18.988Z,3.30
2019-01-14T00:59:47.420Z,3.77
2019-01-14T01:02:15.961Z,3.70
2019-01-14T01:04:44.429Z,3.37
2019-01-14T01:07:12.940Z,3.80
2019-01-14T01:09:41.407Z,3.77
2019-01-14T01:12:10.236Z,4.37
2019-01-14T01:14:39.152Z,3.20
2019-01-14T01:17:07.608Z,3.53
2019-01-14T01:19:36.316Z,3.60
2019-01-14T01:22:04.952Z,3.47
2019-01-14T01:24:33.400Z,3.00
2019-01-14T01:27:01.845Z,3.67
2019-01-14T01:29:30.300Z,3.97
2019-01-14T01:31:58.731Z,3.67
2019-01-14T01:34:27.196Z,3.67
2019-01-14T01:36:55.712Z,4.70
2019-01-14T01:39:24.173Z,3.23
2019-01-14T01:41:52.968Z,4.10
2019-01-14T01:44:21.415Z,3.10
2019-01-14T01:46:49.923Z,2.77
2019-01-14T01:49:18.384Z,3.77
2019-01-14T01:51:46.815Z,3.40
2019-01-14T01:54:15.545Z,3.57
2019-01-14T01:56:43.989Z,3.47
2019-01-14T01:59:12.474Z,3.83
2019-01-14T02:01:40.896Z,4.67
2019-01-14T02:04:09.341Z,3.90
2019-01-14T02:06:39.274Z,3.20
2019-01-14T02:09:08.695Z,3.97
2019-01-14T02:11:37.227Z,3.87
2019-01-14T02:14:06.027Z,4.03
2019-01-14T02:16:34.864Z,3.83
2019-01-14T02:19:03.296Z,4.17
2019-01-14T02:21:31.755Z,3.70
2019-01-14T02:24:00.183Z,3.57
2019-01-14T02:26:28.640Z,3.63
2019-01-14T02:28:57.129Z,4.83
2019-01-14T02:31:25.659Z,4.93
2019-01-14T02:33:54.163Z,4.30
2019-01-14T02:36:22.754Z,3.50
2019-01-14T02:38:51.190Z,3.80
2019-01-14T02:41:19.677Z,4.03
2019-01-14T02:43:48.121Z,4.30
2019-01-14T02:46:16.577Z,3.97
2019-01-14T02:48:45.011Z,3.70
2019-01-14T02:51:15.070Z,4.27
2019-01-14T02:53:43.684Z,4.10
2019-01-14T02:56:12.145Z,3.13
2019-01-14T02:58:40.580Z,2.93
2019-01-14T03:01:09.008Z,3.93
2019-01-14T03:03:37.463Z,3.87
2019-01-14T03:06:05.909Z,3.93
2019-01-14T03:08:34.364Z,4.40
2019-01-14T03:11:02.795Z,5.03
2019-01-14T03:13:31.260Z,4.93
2019-01-14T03:15:59.804Z,3.33
2019-01-14T03:18:28.254Z,4.10
2019-01-14T03:20:56.756Z,3.03
2019-01-14T03:23:25.211Z,4.57
2019-01-14T03:25:58.350Z,3.40
2019-01-14T03:28:23.827Z,3.50
2019-01-14T03:30:52.265Z,4.63
2019-01-14T03:33:20.737Z,3.73
2019-01-14T03:35:49.266Z,4.93
2019-01-14T03:38:17.724Z,5.30
2019-01-14T03:40:46.153Z,4.60
2019-01-14T03:43:14.608Z,5.43
2019-01-14T03:45:43.045Z,3.67
2019-01-14T03:48:11.478Z,4.60
2019-01-14T03:50:39.995Z,4.23
2019-01-14T03:53:08.434Z,4.30
2019-01-14T03:55:36.927Z,4.83
2019-01-14T03:58:05.527Z,2.97
2019-01-14T04:00:34.036Z,4.53
2019-01-14T04:03:02.480Z,3.87
2019-01-14T04:05:30.940Z,4.30
2019-01-14T04:07:59.388Z,4.43
2019-01-14T04:10:27.845Z,4.00
2019-01-14T04:12:56.351Z,4.57
2019-01-14T04:15:24.804Z,4.40
2019-01-14T04:17:53.313Z,3.87
2019-01-14T04:20:21.774Z,3.80
2019-01-14T04:22:50.286Z,4.83
2019-01-14T04:25:21.462Z,4.13
2019-01-14T04:27:49.988Z,3.13
2019-01-14T04:30:20.896Z,3.70
2019-01-14T04:32:50.056Z,4.77
2019-01-14T04:35:19.843Z,2.90
2019-01-14T04:37:48.524Z,3.40
2019-01-14T04:40:17.205Z,3.83
2019-01-14T04:42:45.929Z,3.30
2019-01-14T04:45:15.707Z,3.33
2019-01-14T04:47:44.237Z,3.43
2019-01-14T04:50:15.520Z,3.20
2019-01-14T04:52:44.052Z,3.93
2019-01-14T04:55:12.564Z,4.60
2019-01-14T04:57:41.004Z,3.83
2019-01-14T05:00:16.013Z,4.37
2019-01-14T05:02:44.520Z,3.93
2019-01-14T05:05:13.314Z,4.50
2019-01-14T05:07:41.822Z,4.20
2019-01-14T05:10:13.320Z,4.37
2019-01-14T05:12:41.760Z,4.40
2019-01-14T05:15:12.165Z,4.73
2019-01-14T05:17:40.592Z,4.07
2019-01-14T05:20:21.238Z,3.27
2019-01-14T05:22:49.679Z,3.07
2019-01-14T05:25:18.137Z,3.87
2019-01-14T05:27:46.983Z,3.60
2019-01-14T05:30:17.776Z,3.67
2019-01-14T05:32:46.384Z,3.67
2019-01-14T05:35:15.288Z,3.77
2019-01-14T05:37:43.723Z,3.73
2019-01-14T05:40:14.621Z,3.33
2019-01-14T05:42:43.054Z,3.83
2019-01-14T05:45:11.862Z,4.03
2019-01-14T05:47:40.301Z,3.63
2019-01-14T05:50:13.993Z,4.53
2019-01-14T05:52:42.593Z,3.57
2019-01-14T05:55:12.567Z,4.10
2019-01-14T05:57:41.374Z,4.40
2019-01-14T06:00:31.666Z,2.73
2019-01-14T06:03:00.099Z,2.23
2019-01-14T06:05:28.667Z,2.53
2019-01-14T06:07:57.131Z,2.30
2019-01-14T06:10:25.655Z,1.70
2019-01-14T06:12:54.112Z,1.87
2019-01-14T06:15:22.621Z,1.60
2019-01-14T06:17:51.070Z,1.67
2019-01-14T06:20:21.420Z,1.50
2019-01-14T06:22:49.972Z,1.43
2019-01-14T06:25:18.653Z,1.40
2019-01-14T06:27:47.174Z,1.63
2019-01-14T06:30:21.279Z,1.43
2019-01-14T06:32:49.801Z,1.17
2019-01-14T06:35:18.580Z,1.30
2019-01-14T06:37:52.221Z,1.30
2019-01-14T06:40:19.241Z,1.10
2019-01-14T06:42:47.765Z,1.50
2019-01-14T06:45:17.148Z,1.17
2019-01-14T06:47:45.777Z,1.07
2019-01-14T06:50:16.748Z,1.00
2019-01-14T06:52:45.436Z,1.87
2019-01-14T06:55:14.587Z,2.93
2019-01-14T06:57:43.296Z,1.70
2019-01-14T07:00:14.916Z,1.40
2019-01-14T07:02:43.424Z,1.20
2019-01-14T07:05:13.494Z,1.60
2019-01-14T07:07:42.006Z,1.27
2019-01-14T07:10:16.701Z,1.10
2019-01-14T07:12:45.208Z,1.37
2019-01-14T07:15:13.833Z,1.37
2019-01-14T07:17:42.344Z,1.30
2019-01-14T07:20:12.519Z,1.77
2019-01-14T07:22:40.956Z,1.70
2019-01-14T07:25:10.356Z,1.90
2019-01-14T07:27:38.860Z,1.40
2019-01-14T07:30:12.955Z,1.73
2019-01-14T07:32:41.402Z,1.63
2019-01-14T07:35:10.370Z,1.97
2019-01-14T07:37:38.877Z,1.60
2019-01-14T07:40:10.162Z,2.10
2019-01-14T07:42:38.596Z,2.00
2019-01-14T07:45:09.664Z,1.60
2019-01-14T07:47:38.119Z,1.80
2019-01-14T07:50:09.401Z,2.27
2019-01-14T07:52:38.189Z,1.80
2019-01-14T07:55:06.822Z,2.40
2019-01-14T07:57:35.355Z,2.90
2019-01-14T08:00:18.863Z,2.60
2019-01-14T08:02:47.493Z,4.10
2019-01-14T08:05:16.037Z,3.57
2019-01-14T08:07:44.559Z,3.97
2019-01-14T08:10:13.240Z,4.00
2019-01-14T08:12:41.767Z,4.77
2019-01-14T08:15:13.548Z,6.00
2019-01-14T08:17:42.015Z,5.30
2019-01-14T08:20:11.964Z,5.60
2019-01-14T08:22:40.571Z,5.80
2019-01-14T08:25:11.471Z,5.23
2019-01-14T08:27:40.125Z,5.73
2019-01-14T08:30:14.490Z,5.87
2019-01-14T08:32:42.928Z,5.03
2019-01-14T08:35:11.514Z,5.13
2019-01-14T08:37:40.029Z,4.70
2019-01-14T08:40:11.219Z,4.03
2019-01-14T08:42:39.724Z,3.57
2019-01-14T08:45:10.124Z,4.70
2019-01-14T08:47:38.633Z,4.47
2019-01-14T08:50:10.528Z,4.53
2019-01-14T08:52:39.060Z,4.20
2019-01-14T08:55:07.955Z,4.87
2019-01-14T08:57:36.535Z,4.47
2019-01-14T09:00:14.008Z,4.30
2019-01-14T09:02:42.512Z,4.23
2019-01-14T09:05:11.203Z,3.67
2019-01-14T09:07:39.647Z,3.60
2019-01-14T09:10:16.941Z,3.23
2019-01-14T09:12:45.390Z,3.47
2019-01-14T09:15:16.560Z,2.77
2019-01-14T09:17:45.666Z,3.17
2019-01-14T09:20:16.544Z,3.10
2019-01-14T09:22:45.140Z,2.53
2019-01-14T09:25:13.816Z,3.20
2019-01-14T09:27:42.371Z,4.03
2019-01-14T09:30:13.907Z,3.03
2019-01-14T09:32:43.786Z,2.93
2019-01-14T09:35:12.589Z,2.50
2019-01-14T09:37:41.100Z,2.50
2019-01-14T09:40:13.009Z,1.37
2019-01-14T09:42:41.468Z,1.30
2019-01-14T09:45:10.349Z,1.50
2019-01-14T09:47:38.783Z,1.60
2019-01-14T09:50:10.368Z,1.27
2019-01-14T09:52:38.799Z,1.50
2019-01-14T09:55:10.801Z,1.53
2019-01-14T09:57:40.348Z,2.10
2019-01-14T10:00:10.343Z,1.73
2019-01-14T10:02:39.014Z,2.40
2019-01-14T10:05:10.344Z,2.40
2019-01-14T10:07:39.091Z,2.47
2019-01-14T10:10:12.764Z,2.60
2019-01-14T10:12:41.273Z,2.57
2019-01-14T10:15:12.872Z,2.60
2019-01-14T10:17:41.452Z,2.73
2019-01-14T10:20:11.125Z,2.30
2019-01-14T10:22:39.692Z,2.53
2019-01-14T10:25:09.197Z,2.60
2019-01-14T10:27:37.782Z,2.63
2019-01-14T10:30:09.283Z,2.10
2019-01-14T10:32:38.018Z,2.10
2019-01-14T10:35:08.187Z,1.80
2019-01-14T10:37:36.720Z,1.97
2019-01-14T10:40:08.697Z,1.83
2019-01-14T10:42:37.217Z,2.40
2019-01-14T10:45:08.849Z,2.73
2019-01-14T10:47:37.368Z,2.47
2019-01-14T10:50:08.969Z,2.27
2019-01-14T10:52:37.441Z,2.43
2019-01-14T10:55:12.346Z,2.20
2019-01-14T10:57:38.059Z,1.50
2019-01-14T11:00:15.494Z,2.00
2019-01-14T11:02:47.952Z,2.13
2019-01-14T11:05:19.000Z,2.07
2019-01-14T11:07:47.500Z,2.37
2019-01-14T11:10:15.951Z,2.20
2019-01-14T11:12:44.381Z,1.80
2019-01-14T11:15:17.699Z,2.50
2019-01-14T11:17:46.276Z,1.77
2019-01-14T11:20:17.752Z,1.73
2019-01-14T11:22:46.523Z,2.17
2019-01-14T11:25:15.048Z,2.37
2019-01-14T11:27:43.500Z,1.90
2019-01-14T11:30:18.017Z,2.27
2019-01-14T11:32:46.508Z,2.13
2019-01-14T11:35:14.964Z,1.77
2019-01-14T11:37:43.464Z,1.60
2019-01-14T11:40:15.328Z,1.53
2019-01-14T11:42:43.748Z,1.67
2019-01-14T11:45:13.960Z,1.53
2019-01-14T11:47:42.460Z,1.57
2019-01-14T11:50:13.432Z,2.10
2019-01-14T11:52:41.951Z,1.57
2019-01-14T11:55:10.453Z,1.50
2019-01-14T11:57:38.897Z,1.20
2019-01-14T12:00:10.477Z,0.93
2019-01-14T12:02:39.680Z,0.60
2019-01-14T12:05:09.874Z,1.13
2019-01-14T12:07:38.396Z,0.77
2019-01-14T12:10:09.363Z,1.70
2019-01-14T12:12:37.816Z,1.10
2019-01-14T12:15:15.203Z,1.50
2019-01-14T12:17:43.673Z,1.80
2019-01-14T12:20:14.239Z,1.20
2019-01-14T12:22:43.055Z,0.73
2019-01-14T12:25:11.732Z,0.67
2019-01-14T12:27:40.181Z,0.73
2019-01-14T12:30:17.517Z,1.07
2019-01-14T12:32:45.963Z,1.20
2019-01-14T12:35:14.724Z,1.40
2019-01-14T12:37:45.218Z,1.80
2019-01-14T12:40:13.748Z,1.20
2019-01-14T12:42:42.312Z,1.43
2019-01-14T12:45:13.901Z,1.20
2019-01-14T12:47:42.338Z,1.50
2019-01-14T12:50:13.633Z,1.63
2019-01-14T12:52:42.135Z,1.50
2019-01-14T12:55:12.919Z,1.60
2019-01-14T12:57:41.489Z,1.80
2019-01-14T13:00:27.077Z,1.80
2019-01-14T13:02:58.423Z,2.10
2019-01-14T13:05:27.381Z,1.77
2019-01-14T13:07:55.803Z,1.80
2019-01-14T13:10:24.256Z,1.50
2019-01-14T13:12:52.683Z,1.47
2019-01-14T13:15:23.460Z,1.40
2019-01-14T13:17:52.069Z,1.57
2019-01-14T13:20:21.748Z,1.57
2019-01-14T13:22:50.453Z,1.60
2019-01-14T13:25:18.943Z,1.77
2019-01-14T13:27:47.632Z,1.67
2019-01-14T13:30:24.132Z,1.63
2019-01-14T13:32:53.115Z,2.00
2019-01-14T13:35:21.554Z,1.60
2019-01-14T13:37:50.644Z,1.40
2019-01-14T13:40:19.230Z,2.30
2019-01-14T13:42:47.682Z,1.80
2019-01-14T13:45:23.785Z,2.10
2019-01-14T13:47:52.744Z,1.67
2019-01-14T13:50:23.408Z,1.67
2019-01-14T13:52:52.079Z,1.93
2019-01-14T13:55:21.072Z,1.60
2019-01-14T13:57:49.769Z,1.60
2019-01-14T14:00:20.477Z,1.93
2019-01-14T14:02:49.223Z,1.70
2019-01-14T14:05:17.682Z,1.80
2019-01-14T14:07:46.183Z,1.70
2019-01-14T14:10:20.638Z,1.77
2019-01-14T14:12:49.072Z,1.33
2019-01-14T14:15:18.692Z,1.40
2019-01-14T14:17:47.259Z,1.83
2019-01-14T14:20:17.516Z,1.80
2019-01-14T14:22:46.096Z,1.70
2019-01-14T14:25:14.702Z,1.83
2019-01-14T14:27:43.288Z,1.50
2019-01-14T14:30:26.087Z,2.23
2019-01-14T14:32:54.544Z,1.67
2019-01-14T14:35:23.063Z,1.23
2019-01-14T14:37:51.577Z,1.00
2019-01-14T14:40:20.175Z,1.23
2019-01-14T14:42:48.820Z,1.50
2019-01-14T14:45:17.471Z,2.10
2019-01-14T14:47:46.101Z,1.70
2019-01-14T14:50:18.535Z,1.80
2019-01-14T14:52:47.267Z,2.30
2019-01-14T14:55:15.721Z,2.70
2019-01-14T14:57:44.253Z,2.70
2019-01-14T15:00:15.266Z,2.50
2019-01-14T15:02:43.717Z,2.10
2019-01-14T15:05:12.789Z,2.40
2019-01-14T15:07:41.432Z,2.47
2019-01-14T15:10:12.768Z,2.10
2019-01-14T15:12:41.232Z,2.50
2019-01-14T15:15:12.136Z,2.33
2019-01-14T15:17:40.573Z,2.60
2019-01-14T15:20:12.216Z,2.37
2019-01-14T15:22:40.689Z,2.03
2019-01-14T15:25:09.226Z,1.77
2019-01-14T15:27:37.862Z,2.20
2019-01-14T15:30:13.332Z,2.63
2019-01-14T15:32:41.875Z,1.90
2019-01-14T15:35:10.399Z,2.33
2019-01-14T15:37:38.914Z,1.97
2019-01-14T15:40:10.777Z,2.60
2019-01-14T15:42:39.216Z,2.40
2019-01-14T15:45:13.226Z,2.03
2019-01-14T15:47:41.670Z,2.30
2019-01-14T15:50:10.784Z,2.87
2019-01-14T15:52:39.355Z,2.60
2019-01-14T15:55:16.195Z,2.57
2019-01-14T15:57:44.632Z,3.50
2019-01-14T16:00:15.532Z,2.37
2019-01-14T16:02:44.210Z,2.10
2019-01-14T16:05:13.184Z,2.00
2019-01-14T16:07:41.702Z,2.53
2019-01-14T16:10:13.586Z,2.43
2019-01-14T16:12:42.126Z,2.80
2019-01-14T16:15:10.907Z,2.23
2019-01-14T16:17:39.496Z,2.27
2019-01-14T16:20:11.142Z,2.10
2019-01-14T16:22:39.611Z,2.10
2019-01-14T16:25:09.045Z,1.47
2019-01-14T16:27:37.743Z,1.77
2019-01-14T16:30:15.220Z,2.20
2019-01-14T16:32:43.827Z,1.60
2019-01-14T16:35:12.405Z,1.73
2019-01-14T16:37:40.970Z,1.77
2019-01-14T16:40:17.622Z,1.70
2019-01-14T16:42:41.311Z,1.77
2019-01-14T16:45:15.899Z,1.70
2019-01-14T16:47:44.428Z,1.70
2019-01-14T16:50:14.800Z,1.77
2019-01-14T16:52:43.259Z,1.60
2019-01-14T16:55:13.505Z,2.00
2019-01-14T16:57:42.019Z,1.63
2019-01-14T17:00:20.556Z,1.67
2019-01-14T17:02:49.021Z,1.60
2019-01-14T17:05:18.210Z,2.27
2019-01-14T17:07:46.648Z,1.40
2019-01-14T17:10:16.074Z,1.73
2019-01-14T17:12:44.708Z,1.97
2019-01-14T17:15:13.773Z,2.20
2019-01-14T17:17:42.750Z,1.90
2019-01-14T17:20:19.381Z,2.90
2019-01-14T17:22:48.096Z,2.13
2019-01-14T17:25:16.692Z,1.93
2019-01-14T17:27:45.432Z,2.50
2019-01-14T17:30:16.177Z,2.73
2019-01-14T17:32:45.044Z,1.40
2019-01-14T17:35:14.545Z,2.07
2019-01-14T17:37:43.316Z,1.57
2019-01-14T17:40:17.153Z,2.17
2019-01-14T17:42:45.701Z,1.87
2019-01-14T17:45:14.292Z,1.27
2019-01-14T17:47:42.870Z,1.80
2019-01-14T17:50:13.931Z,1.00
2019-01-14T17:52:42.438Z,1.00
2019-01-14T17:55:11.018Z,2.13
2019-01-14T17:57:39.553Z,1.10
2019-01-14T18:00:22.398Z,1.17
2019-01-14T18:02:50.920Z,1.10
2019-01-14T18:05:19.536Z,1.03
2019-01-14T18:07:48.208Z,1.60
2019-01-14T18:10:20.382Z,2.10
2019-01-14T18:12:48.937Z,2.00
2019-01-14T18:15:17.396Z,1.50
2019-01-14T18:17:46.172Z,1.73
2019-01-14T18:20:16.878Z,2.37
2019-01-14T18:22:45.530Z,2.73
2019-01-14T18:25:14.871Z,2.93
2019-01-14T18:27:43.424Z,3.20
2019-01-14T18:30:17.196Z,3.37
2019-01-14T18:32:45.660Z,3.83
2019-01-14T18:35:14.756Z,3.87
2019-01-14T18:37:43.497Z,5.03
2019-01-14T18:40:14.880Z,6.17
2019-01-14T18:42:43.512Z,5.80
2019-01-14T18:45:16.923Z,7.27
2019-01-14T18:47:45.497Z,6.27
2019-01-14T18:50:20.145Z,8.03
2019-01-14T18:52:51.664Z,6.90
2019-01-14T18:55:21.971Z,7.07
2019-01-14T19:00:37.982Z,6.50
2019-01-14T19:03:09.813Z,7.50
2019-01-14T19:05:39.100Z,5.63
2019-01-14T19:08:07.854Z,6.03
2019-01-14T19:10:36.521Z,5.50
2019-01-14T19:13:05.427Z,6.00
2019-01-14T19:15:34.033Z,5.80
2019-01-14T19:18:02.481Z,6.00
2019-01-14T19:20:31.021Z,5.53
2019-01-14T19:22:59.739Z,4.80
2019-01-14T19:25:28.285Z,4.37
2019-01-14T19:27:56.798Z,4.60
2019-01-14T19:30:25.600Z,4.60
2019-01-14T19:32:54.404Z,5.47
2019-01-14T19:35:23.021Z,4.20
2019-01-14T19:37:54.448Z,4.53
2019-01-14T19:40:23.169Z,5.27
2019-01-14T19:42:51.936Z,7.40
2019-01-14T19:45:21.477Z,7.67
2019-01-14T19:47:50.327Z,6.63
2019-01-14T19:50:21.303Z,6.80
2019-01-14T19:52:50.989Z,5.90
2019-01-14T19:55:20.690Z,6.53
2019-01-14T19:57:49.411Z,6.57
2019-01-14T20:00:25.974Z,6.30
2019-01-14T20:02:54.626Z,7.23
2019-01-14T20:05:23.332Z,6.50
2019-01-14T20:07:52.715Z,5.97
2019-01-14T20:10:21.314Z,5.27
2019-01-14T20:12:50.265Z,4.77
2019-01-14T20:15:20.645Z,5.00
2019-01-14T20:17:49.169Z,5.20
2019-01-14T20:20:17.813Z,4.63
2019-01-14T20:22:46.536Z,4.60
2019-01-14T20:25:15.304Z,4.20
2019-01-14T20:27:43.880Z,4.70
2019-01-14T20:30:19.125Z,4.73
2019-01-14T20:32:48.092Z,5.00
2019-01-14T20:35:16.713Z,5.53
2019-01-14T20:37:45.767Z,4.83
2019-01-14T20:40:16.025Z,5.30
2019-01-14T20:42:44.539Z,4.17
2019-01-14T20:45:17.381Z,5.43
2019-01-14T20:47:45.945Z,5.27
2019-01-14T20:50:17.488Z,4.80
2019-01-14T20:52:46.141Z,5.17
2019-01-14T20:55:14.809Z,4.77
2019-01-14T20:57:44.469Z,5.93
2019-01-14T21:00:26.695Z,5.27
2019-01-14T21:02:55.517Z,5.87
2019-01-14T21:05:28.972Z,4.67
2019-01-14T21:07:57.699Z,5.03
2019-01-14T21:10:28.410Z,7.37
2019-01-14T21:12:57.882Z,6.87
2019-01-14T21:15:26.466Z,6.87
2019-01-14T21:17:54.994Z,7.10
2019-01-14T21:20:25.913Z,6.23
2019-01-14T21:22:54.760Z,5.53
2019-01-14T21:25:23.965Z,5.87
2019-01-14T21:27:54.679Z,5.50
2019-01-14T21:30:25.013Z,5.37
2019-01-14T21:32:53.704Z,6.63
2019-01-14T21:35:22.453Z,6.17
2019-01-14T21:37:52.985Z,5.20
2019-01-14T21:40:21.675Z,6.93
2019-01-14T21:42:50.316Z,5.70
2019-01-14T21:45:18.901Z,5.13
2019-01-14T21:47:47.742Z,5.73
2019-01-14T21:50:18.394Z,5.80
2019-01-14T21:52:47.415Z,5.97
2019-01-14T21:55:18.552Z,6.00
2019-01-14T21:57:47.378Z,5.73
2019-01-14T22:00:18.785Z,6.07
2019-01-14T22:02:48.210Z,5.90
2019-01-14T22:05:16.860Z,5.37
2019-01-14T22:07:46.389Z,6.13
2019-01-14T22:10:16.993Z,6.67
2019-01-14T22:12:45.586Z,6.17
2019-01-14T22:15:14.968Z,5.50
2019-01-14T22:17:43.916Z,7.83
2019-01-14T22:20:21.492Z,6.63
2019-01-14T22:22:50.540Z,6.87
2019-01-14T22:25:20.590Z,7.70
2019-01-14T22:27:50.724Z,7.70
2019-01-14T22:30:22.049Z,6.97
2019-01-14T22:32:50.814Z,7.47
2019-01-14T22:35:19.393Z,6.77
2019-01-14T22:37:48.423Z,6.90
2019-01-14T22:40:20.376Z,7.27
2019-01-14T22:42:48.993Z,7.37
2019-01-14T22:45:17.739Z,6.53
2019-01-14T22:47:46.411Z,6.57
2019-01-14T22:50:26.609Z,5.57
2019-01-14T22:52:55.044Z,6.73
2019-01-14T22:55:23.576Z,5.40
2019-01-14T22:57:52.098Z,5.90
2019-01-14T23:00:47.156Z,5.87
2019-01-14T23:03:15.821Z,6.53
2019-01-14T23:05:45.006Z,6.40
2019-01-14T23:08:14.132Z,6.77
2019-01-14T23:10:43.040Z,5.67
2019-01-14T23:13:11.926Z,6.37
2019-01-14T23:15:40.604Z,5.70
2019-01-14T23:18:09.311Z,5.20
2019-01-14T23:20:38.277Z,4.70
2019-01-14T23:23:06.926Z,5.40
2019-01-14T23:25:36.579Z,5.40
2019-01-14T23:28:05.265Z,5.10
2019-01-14T23:30:33.883Z,6.13
2019-01-14T23:33:02.515Z,5.73
2019-01-14T23:35:30.958Z,5.47
2019-01-14T23:37:59.427Z,5.50
2019-01-14T23:40:28.009Z,5.53
2019-01-14T23:42:56.772Z,5.90
2019-01-14T23:45:25.400Z,5.57
2019-01-14T23:47:54.409Z,5.50
2019-01-14T23:50:22.891Z,5.40
2019-01-14T23:52:51.340Z,5.60
2019-01-14T23:55:20.170Z,6.10
2019-01-14T23:57:49.538Z,5.30
